Lesko, Poland

11:10 PM CET on March 24, 2017 (GMT +0100)
Laworta-Ski Ustrzyki Dolne | | Change Station

Elev 2340 ft 49.43 °N, 22.59 °E | Updated 12 seconds ago

Clear
Clear
34.5 °F
Feels Like 26 °F
N
11.2
Wind Variable Wind from NNE
Gusts 12.3 mph

Today
High -- | Low -- °F
--% Chance of Precip.
Yesterday
High -- | Low -- °F
Precip. -- in
Pressure 30.36 in
Visibility 1.1 miles
Clouds
Windchill 26 °F
Dew Point 30 °F
Humidity 84%
Rainfall 0.00 in
Snow Depth Not available.
5:24 AM 5:49 PM
Waning Crescent, 12% visible
METAR EPRZ 242200Z 24005KT 1800 R27/0325N PRFG BR NSC M00/M00 Q1028
Pressure 30.36 in
Visibility 1.1 miles
Clouds
Windchill 26 °F
Dew Point 30 °F
Humidity 84%
Rainfall 0.00 in
Snow Depth Not available.
5:24 AM 5:49 PM
Waning Crescent, 12% visible
METAR EPRZ 242200Z 24005KT 1800 R27/0325N PRFG BR NSC M00/M00 Q1028

Get Severe Weather Alerts

Thanks for signing up!

Be on the lookout for a verification email in your inbox.

You'll start receiving the daily forecast at 8 AM.

×

10-Day Weather Forecast

×

Almanac

Astronomy

Mar. 24, 2017 Rise Set
Actual Time
Civil Twilight
Nautical Twilight
Astronomical Twilight
Moon
Length of Visible Light
Length of Day
Tomorrow will be .
, % of the Moon is Illuminated

Today's Extremes

Country Highs Country Lows

Community

WunderPhotos

Upload Photos

1,962,540 photos uploaded!

WunderBlog® & News

Nearby

Air Quality

  Air Quality AQ Index Pollutant
Not available.

Snow Depth

Station Depth Elevation

Earthquake Activity

City Distance Mag. Time & Date
Minimum magnitude displayed is 2.5.

Earthquake Activity

City Distance Mag. Time & Date
Minimum magnitude displayed is 2.5.

Coastal Water Temperatures

Place Temperature

Stations

Nearby Weather Stations

Station Location Temp. Windchill Dew Point Humidity Wind Precip. Elev Updated Type